MSC Fillippa — A8XT7 — position and weather

sailwx.info

Track history (hours):
 
Tides and Currents Weather Stations Pressure Air Temp Water Temp Dewpoint Dewpoint Depression Visibility Wind Speed Wind Dir Waves Ship Positions

MSC Fillippa

Last reported at 2018-Jul-19 23:00 UTC. Time now 2018-Jul-19 23:09 UTC.
Position N 55°43' E 016°22'.

Length 366 m; draft 9.6 m.

Type: Cargo ship. MMSI: 636092168.

Date/timePositionNaut miles runAvg speedWind from/ knotsBaromVisibWave heightAir tempDewpointWater temp
2018-Jul-19 23:00N 55°43' E 016°22'918.9
2018-Jul-19 22:30N 55°41' E 016°06'1019.1
2018-Jul-19 22:00N 55°39' E 015°49'1019.2
2018-Jul-19 21:30N 55°37' E 015°33'1018.9
2018-Jul-19 21:00N 55°34' E 015°17'1019.2
2018-Jul-19 20:30N 55°30' E 015°02'1019.7
2018-Jul-19 20:00N 55°26' E 014°46'1019.1
2018-Jul-19 19:30N 55°19' E 014°34'1019.0
2018-Jul-19 19:00N 55°12' E 014°24'1019.2
2018-Jul-19 18:30N 55°04' E 014°13'919.1
2018-Jul-19 18:00N 54°59' E 013°59'1019.5
2018-Jul-19 17:30N 54°56' E 013°43'1019.3
2018-Jul-19 17:00N 54°52' E 013°28'1019.1
2018-Jul-19 16:30N 54°50' E 013°11'2718.4
2018-Jul-19 15:01N 54°40' E 012°27'118.3
2018-Jul-19 14:58N 54°39' E 012°26'1414.8
2018-Jul-19 14:00N 54°28' E 012°13'918.1
2018-Jul-19 13:30N 54°25' E 011°58'1019.6
2018-Jul-19 13:00N 54°26' E 011°41'1020.3
2018-Jul-19 12:30N 54°31' E 011°26'1019.8
2018-Jul-19 12:00N 54°35' E 011°10'1019.6
2018-Jul-19 11:30N 54°38' E 010°54'917.1
2018-Jul-19 11:00N 54°45' E 010°48'918.9
2018-Jul-19 10:30N 54°55' E 010°52'918.0
2018-Jul-19 10:00N 55°02' E 010°60'917.9
2018-Jul-19 09:30N 55°11' E 011°03'816.7
2018-Jul-19 09:00N 55°20' E 011°02'1019.5
2018-Jul-19 08:28N 55°29' E 010°54'2418.5
2018-Jul-19 07:11N 55°52' E 010°49'817.7
2018-Jul-19 06:43N 55°58' E 011°00'418.6
2018-Jul-19 06:30N 56°01' E 011°04'918.5
2018-Jul-19 06:00N 56°09' E 011°13'1019.1
2018-Jul-19 05:30N 56°17' E 011°22'1119.5
2018-Jul-19 04:57N 56°26' E 011°32'919.3
2018-Jul-19 04:30N 56°34' E 011°40'1219.5
2018-Jul-19 03:54N 56°44' E 011°50'819.2
2018-Jul-19 03:28N 56°52' E 011°48'919.2
2018-Jul-19 03:00N 57°01' E 011°42'919.3
2018-Jul-19 02:30N 57°10' E 011°36'1019.5
2018-Jul-19 02:00N 57°19' E 011°31'1019.7
2018-Jul-19 01:30N 57°28' E 011°24'1019.9
2018-Jul-19 01:00N 57°34' E 011°10'1019.4
2018-Jul-19 00:30N 57°41' E 010°57'919.0
2018-Jul-19 00:00N 57°47' E 010°43'5 9.5
2018-Jul-18 23:30N 57°47' E 010°34'713.5
2018-Jul-18 23:00N 57°48' E 010°22'815.0
2018-Jul-18 22:30N 57°48' E 010°07'1020.3
2018-Jul-18 22:00N 57°47' E 009°49'1020.6
2018-Jul-18 21:30N 57°46' E 009°29'1020.6
2018-Jul-18 21:00N 57°41' E 009°13'1220.4
2018-Jul-18 20:26N 57°35' E 008°54'920.5
2018-Jul-18 20:00N 57°30' E 008°40'1520.5
2018-Jul-18 19:17N 57°22' E 008°17'620.2
2018-Jul-18 18:58N 57°18' E 008°09'1519.3
2018-Jul-18 18:11N 57°05' E 007°54'17517.8
2018-Jul-18 08:23N 54°11' E 007°38'820.3
2018-Jul-18 08:00N 54°07' E 007°49'1020.5
2018-Jul-18 07:30N 54°01' E 008°04'714.5
2018-Jul-18 07:00N 54°00' E 008°16'1020.9
2018-Jul-18 06:30N 53°58' E 008°33'918.2
2018-Jul-18 06:00N 53°52' E 008°44'713.4
2018-Jul-18 05:31N 53°51' E 008°56'713.3
2018-Jul-18 05:01N 53°53' E 009°06'510.4
2018-Jul-18 04:30N 53°53' E 009°15'611.8
2018-Jul-18 04:00N 53°48' E 009°22'510.3
2018-Jul-18 03:30N 53°44' E 009°27'5 9.8
2018-Jul-18 03:00N 53°40' E 009°31'5 9.7
2018-Jul-18 02:30N 53°36' E 009°36'510.1
2018-Jul-18 02:01N 53°34' E 009°43'510.6
2018-Jul-18 01:30N 53°33' E 009°52'1 2.4
2018-Jul-18 00:58N 53°32' E 009°54'0 0.0
2018-Jul-18 00:28N 53°32' E 009°54'0 0.0
2018-Jul-17 23:58N 53°32' E 009°54'0 0.0
2018-Jul-17 23:28N 53°32' E 009°54'0 0.0
2018-Jul-17 22:58N 53°32' E 009°54'0 0.0
2018-Jul-17 22:28N 53°32' E 009°54'0 0.0
2018-Jul-17 21:58N 53°32' E 009°54'0 0.0
2018-Jul-17 21:28N 53°32' E 009°54'0 0.0
2018-Jul-17 20:58N 53°32' E 009°54'0 0.0
2018-Jul-17 20:28N 53°32' E 009°54'0 0.0
2018-Jul-17 19:58N 53°32' E 009°54'0 0.0
2018-Jul-17 19:28N 53°32' E 009°54'0 0.0
2018-Jul-17 18:58N 53°32' E 009°54'0 0.0
2018-Jul-17 18:28N 53°32' E 009°54'0 0.0
2018-Jul-17 17:58N 53°32' E 009°54'0 0.0
2018-Jul-17 17:28N 53°32' E 009°54'0 0.0
2018-Jul-17 16:58N 53°32' E 009°54'0 0.0
2018-Jul-17 16:28N 53°32' E 009°54'0 0.0
2018-Jul-17 15:58N 53°32' E 009°54'0 0.0
2018-Jul-17 15:25N 53°32' E 009°54'0 0.0
2018-Jul-17 14:58N 53°32' E 009°54'0 0.0
2018-Jul-17 14:28N 53°32' E 009°54'0 0.0
2018-Jul-17 13:58N 53°32' E 009°54'0 0.0
2018-Jul-17 13:28N 53°32' E 009°54'0 0.0
2018-Jul-17 12:58N 53°32' E 009°54'0 0.0
2018-Jul-17 12:28N 53°32' E 009°54'0 0.0
2018-Jul-17 11:58N 53°32' E 009°54'0 0.0
2018-Jul-17 11:28N 53°32' E 009°54'0 0.0
2018-Jul-17 10:58N 53°32' E 009°54'0 0.0
2018-Jul-17 10:28N 53°32' E 009°54'0 0.0
2018-Jul-17 09:58N 53°32' E 009°54'0 0.0
2018-Jul-17 09:28N 53°32' E 009°54'0 0.0
2018-Jul-17 08:58N 53°32' E 009°54'0 0.0
2018-Jul-17 08:28N 53°32' E 009°54'0 0.0
2018-Jul-17 08:00N 53°32' E 009°54'0 0.0
2018-Jul-17 07:30N 53°32' E 009°54'0 0.2
2018-Jul-17 07:00N 53°32' E 009°54'2 3.5
2018-Jul-17 06:30N 53°33' E 009°51'4 8.5
2018-Jul-17 06:00N 53°34' E 009°45'611.3
2018-Jul-17 05:31N 53°36' E 009°36'611.1
2018-Jul-17 05:00N 53°40' E 009°30'713.1
2018-Jul-17 04:30N 53°46' E 009°24'714.4
2018-Jul-17 04:01N 53°52' E 009°18'612.8
2018-Jul-17 03:30N 53°53' E 009°07'612.9
2018-Jul-17 03:01N 53°51' E 008°56'713.2
2018-Jul-17 02:30N 53°51' E 008°45'713.6
2018-Jul-17 02:00N 53°57' E 008°39'917.3
2018-Jul-17 01:30N 53°59' E 008°24'816.4
2018-Jul-17 01:00N 53°59' E 008°10'611.7
2018-Jul-17 00:29N 53°58' E 008°00'5 4.8
2018-Jul-16 23:30N 53°57' E 007°52'3 6.4
2018-Jul-16 23:00N 53°57' E 007°47'815.7
2018-Jul-16 22:30N 53°55' E 007°34'1120.9
2018-Jul-16 22:00N 53°53' E 007°16'1121.0
2018-Jul-16 21:30N 53°51' E 006°59'1121.0
2018-Jul-16 20:59N 53°48' E 006°41'1220.2
2018-Jul-16 20:23N 53°45' E 006°21'719.5
2018-Jul-16 20:00N 53°43' E 006°09'1019.3
2018-Jul-16 19:30N 53°39' E 005°55'1119.1
2018-Jul-16 18:57N 53°36' E 005°38'819.0
2018-Jul-16 18:30N 53°33' E 005°24'1019.3
2018-Jul-16 18:01N 53°30' E 005°09'1019.0
2018-Jul-16 17:30N 53°28' E 004°53'918.0
2018-Jul-16 17:01N 53°23' E 004°41'1019.1
2018-Jul-16 16:30N 53°14' E 004°34'1019.2
2018-Jul-16 16:00N 53°06' E 004°26'1019.2
2018-Jul-16 15:31N 52°57' E 004°18'1019.3
2018-Jul-16 15:01N 52°49' E 004°11'1019.2
2018-Jul-16 14:31N 52°41' E 004°02'1019.2
2018-Jul-16 14:00N 52°32' E 003°55'1019.3
2018-Jul-16 13:30N 52°23' E 003°52'919.1
2018-Jul-16 13:00N 52°13' E 003°53'917.5
2018-Jul-16 12:30N 52°04' E 003°56'5 9.3
2018-Jul-16 12:00N 52°00' E 003°59'5 9.1
2018-Jul-16 11:30N 51°57' E 004°05'1 1.6
2018-Jul-16 10:59N 51°58' E 004°04'0 0.0
2018-Jul-16 10:29N 51°58' E 004°04'0 0.0
2018-Jul-16 09:59N 51°58' E 004°04'0 0.0
2018-Jul-16 09:29N 51°58' E 004°04'0 0.0
2018-Jul-16 08:59N 51°58' E 004°04'0 0.0
2018-Jul-16 08:29N 51°58' E 004°04'0 0.0
2018-Jul-16 07:59N 51°58' E 004°04'0 0.0
2018-Jul-16 07:29N 51°58' E 004°04'0 0.0
2018-Jul-16 06:59N 51°58' E 004°04'0 0.0
2018-Jul-16 06:29N 51°58' E 004°04'0 0.0
2018-Jul-16 05:59N 51°58' E 004°04'0 0.0
2018-Jul-16 05:29N 51°58' E 004°04'0 0.0
2018-Jul-16 04:59N 51°58' E 004°04'0 0.0
2018-Jul-16 04:30N 51°58' E 004°04'0 0.0
2018-Jul-16 03:59N 51°58' E 004°04'0 0.0
2018-Jul-16 03:29N 51°58' E 004°04'0 0.0
2018-Jul-16 02:59N 51°58' E 004°04'0 0.0
2018-Jul-16 02:29N 51°58' E 004°04'0 0.0
2018-Jul-16 01:59N 51°58' E 004°04'0 0.0
2018-Jul-16 01:29N 51°58' E 004°04'0 0.0
2018-Jul-16 00:59N 51°58' E 004°04'0 0.0
2018-Jul-16 00:29N 51°58' E 004°04'0 0.0
2018-Jul-15 23:59N 51°58' E 004°04'0 0.0
2018-Jul-15 23:29N 51°58' E 004°04'0 0.0
2018-Jul-15 22:59N 51°58' E 004°04'0 0.0
2018-Jul-15 22:29N 51°58' E 004°04'0 0.0
2018-Jul-15 21:59N 51°58' E 004°04'0 0.0
2018-Jul-15 21:29N 51°58' E 004°04'0 0.0
2018-Jul-15 20:59N 51°58' E 004°04'0 0.0
2018-Jul-15 20:29N 51°58' E 004°04'0 0.0
2018-Jul-15 19:59N 51°58' E 004°04'0 0.0
2018-Jul-15 19:29N 51°58' E 004°04'0 0.0
2018-Jul-15 18:59N 51°58' E 004°04'0 0.0
2018-Jul-15 18:29N 51°58' E 004°04'0 0.0
2018-Jul-15 17:59N 51°58' E 004°04'0 0.0
2018-Jul-15 17:30N 51°58' E 004°04'0 0.0
2018-Jul-15 17:00N 51°58' E 004°04'0 0.3
2018-Jul-15 16:30N 51°58' E 004°04'1 2.9
2018-Jul-15 16:00N 51°59' E 004°03'611.9
2018-Jul-15 15:30N 52°00' E 003°54'5 9.2
2018-Jul-15 15:00N 51°60' E 003°47'4 8.5
2018-Jul-15 14:30N 51°58' E 003°40'4 7.5
2018-Jul-15 14:00N 51°57' E 003°34'5 9.3
2018-Jul-15 13:30N 51°56' E 003°27'510.0
2018-Jul-15 13:00N 51°52' E 003°23'1 2.3
2018-Jul-15 12:30N 51°51' E 003°21'1 1.4
2018-Jul-15 12:00N 51°51' E 003°20'1 1.3
2018-Jul-15 11:30N 51°51' E 003°19'0 0.5
2018-Jul-15 11:00N 51°52' E 003°19'1 1.6
2018-Jul-15 10:30N 51°52' E 003°20'0 0.2
2018-Jul-15 10:00N 51°52' E 003°20'1 1.7
2018-Jul-15 09:30N 51°52' E 003°22'0 0.7
2018-Jul-15 09:00N 51°52' E 003°21'1 2.0
2018-Jul-15 08:30N 51°51' E 003°20'1 2.0
2018-Jul-15 08:00N 51°52' E 003°21'1 1.3
2018-Jul-15 07:30N 51°52' E 003°22'1 1.5
2018-Jul-15 07:00N 51°53' E 003°23'0 0.9
2018-Jul-15 06:30N 51°53' E 003°23'0 0.8
2018-Jul-15 06:00N 51°52' E 003°23'0 0.8
2018-Jul-15 05:30N 51°52' E 003°24'1 1.7
2018-Jul-15 05:00N 51°53' E 003°23'0 0.8
2018-Jul-15 04:30N 51°52' E 003°23'1 1.9
2018-Jul-15 04:00N 51°52' E 003°24'0 0.8
2018-Jul-15 03:30N 51°52' E 003°24'1 1.1
2018-Jul-15 03:00N 51°53' E 003°23'1 2.2
2018-Jul-15 02:30N 51°52' E 003°25'0 0.8
2018-Jul-15 02:00N 51°52' E 003°24'0 0.7
2018-Jul-15 01:30N 51°52' E 003°24'0 0.8
2018-Jul-15 01:00N 51°52' E 003°23'0 0.3
2018-Jul-15 00:30N 51°52' E 003°24'1 1.1
2018-Jul-15 00:00N 51°52' E 003°23'3 5.8
2018-Jul-14 23:30N 51°50' E 003°20'4 7.6
2018-Jul-14 23:00N 51°46' E 003°17'4 7.9
2018-Jul-14 22:30N 51°43' E 003°14'611.2
2018-Jul-14 22:00N 51°38' E 003°11'816.0
2018-Jul-14 21:30N 51°31' E 003°05'612.5
2018-Jul-14 21:00N 51°25' E 003°02'1019.4
2018-Jul-14 20:30N 51°24' E 003°17'1019.0
2018-Jul-14 20:00N 51°25' E 003°33'611.2
2018-Jul-14 19:31N 51°26' E 003°42'612.8
2018-Jul-14 19:00N 51°21' E 003°48'714.8
2018-Jul-14 18:30N 51°25' E 003°58'510.4
2018-Jul-14 18:00N 51°22' E 004°05'510.8
2018-Jul-14 17:30N 51°22' E 004°13'4 8.9
2018-Jul-14 17:01N 51°18' E 004°16'1 1.1
2018-Jul-14 16:28N 51°17' E 004°15'0 0.0
2018-Jul-14 15:58N 51°17' E 004°15'0 0.0
2018-Jul-14 15:28N 51°17' E 004°15'0 0.0
2018-Jul-14 14:58N 51°17' E 004°15'0 0.0
2018-Jul-14 13:58N 51°17' E 004°15'0 0.0
2018-Jul-14 13:28N 51°17' E 004°15'0 0.0
2018-Jul-14 12:58N 51°17' E 004°15'0 0.0
2018-Jul-14 12:28N 51°17' E 004°15'0 0.0
2018-Jul-14 11:58N 51°17' E 004°15'0 0.0
2018-Jul-14 11:28N 51°17' E 004°15'0 0.0
2018-Jul-14 10:58N 51°17' E 004°15'0 0.0
2018-Jul-14 10:28N 51°17' E 004°15'0 0.0
2018-Jul-14 09:58N 51°17' E 004°15'0 0.0
2018-Jul-14 09:28N 51°17' E 004°15'0 0.0
2018-Jul-14 08:58N 51°17' E 004°15'0 0.0
2018-Jul-14 08:28N 51°17' E 004°15'0 0.0
2018-Jul-14 07:58N 51°17' E 004°15'0 0.0
2018-Jul-14 07:28N 51°17' E 004°15'0 0.0
2018-Jul-14 06:58N 51°17' E 004°15'0 0.0
2018-Jul-14 06:28N 51°17' E 004°15'0 0.0
2018-Jul-14 05:58N 51°17' E 004°15'0 0.0
2018-Jul-14 05:28N 51°17' E 004°15'0 0.0
2018-Jul-14 04:55N 51°17' E 004°15'0 0.0
2018-Jul-14 04:28N 51°17' E 004°15'0 0.0
2018-Jul-14 03:58N 51°17' E 004°15'0 0.0
2018-Jul-14 03:28N 51°17' E 004°15'0 0.0
2018-Jul-14 02:58N 51°17' E 004°15'0 0.0
2018-Jul-14 02:28N 51°17' E 004°15'0 0.0
2018-Jul-14 01:58N 51°17' E 004°15'0 0.0
2018-Jul-14 01:28N 51°17' E 004°15'0 0.0
2018-Jul-14 00:58N 51°17' E 004°15'0 0.0
2018-Jul-14 00:28N 51°17' E 004°15'0 0.0
2018-Jul-13 23:58N 51°17' E 004°15'0 0.0
2018-Jul-13 23:28N 51°17' E 004°15'0 0.0
2018-Jul-13 22:58N 51°17' E 004°15'0 0.0
2018-Jul-13 22:28N 51°17' E 004°15'0 0.0
2018-Jul-13 21:58N 51°17' E 004°15'0 0.0
2018-Jul-13 21:28N 51°17' E 004°15'0 0.0
2018-Jul-13 20:55N 51°17' E 004°15'0 0.0
2018-Jul-13 20:28N 51°17' E 004°15'0 0.0
2018-Jul-13 19:58N 51°17' E 004°15'0 0.0
2018-Jul-13 19:28N 51°17' E 004°15'0 0.0
2018-Jul-13 18:58N 51°17' E 004°15'0 0.0
2018-Jul-13 18:28N 51°17' E 004°15'0 0.0
2018-Jul-13 17:58N 51°17' E 004°15'0 0.0
2018-Jul-13 17:28N 51°17' E 004°15'0 0.0
2018-Jul-13 16:58N 51°17' E 004°15'0 0.0
2018-Jul-13 16:28N 51°17' E 004°15'0 0.0
2018-Jul-13 15:55N 51°17' E 004°15'0 0.0
2018-Jul-13 15:28N 51°17' E 004°15'0 0.0
2018-Jul-13 14:58N 51°17' E 004°15'0 0.0
2018-Jul-13 13:58N 51°17' E 004°15'0 0.0
2018-Jul-13 13:28N 51°17' E 004°15'0 0.0
2018-Jul-13 12:58N 51°17' E 004°15'0 0.0
2018-Jul-13 12:28N 51°17' E 004°15'0 0.0
2018-Jul-13 11:58N 51°17' E 004°15'0 0.0
2018-Jul-13 11:28N 51°17' E 004°15'0 0.0
2018-Jul-13 10:58N 51°17' E 004°15'0 0.0
2018-Jul-13 10:28N 51°17' E 004°15'0 0.0
2018-Jul-13 09:58N 51°17' E 004°15'0 0.0
2018-Jul-13 09:25N 51°17' E 004°15'0 0.0
2018-Jul-13 08:58N 51°17' E 004°15'0 0.0
2018-Jul-13 08:28N 51°17' E 004°15'0 0.0
2018-Jul-13 07:58N 51°17' E 004°15'0 0.0
2018-Jul-13 07:28N 51°17' E 004°15'0 0.0
2018-Jul-13 06:58N 51°17' E 004°15'0 0.0
2018-Jul-13 06:28N 51°17' E 004°15'0 0.0
2018-Jul-13 05:58N 51°17' E 004°15'0 0.0
2018-Jul-13 05:28N 51°17' E 004°15'0 0.0
2018-Jul-13 04:58N 51°17' E 004°15'0 0.0
2018-Jul-13 04:28N 51°17' E 004°15'0 0.0
2018-Jul-13 03:58N 51°17' E 004°15'0 0.0
2018-Jul-13 03:28N 51°17' E 004°15'0 0.0
2018-Jul-13 02:58N 51°17' E 004°15'0 0.0
2018-Jul-13 02:28N 51°17' E 004°15'0 0.0
2018-Jul-13 02:00N 51°17' E 004°15'0 0.0
2018-Jul-13 01:31N 51°17' E 004°15'1 1.2
2018-Jul-13 01:01N 51°18' E 004°16'1 2.2
2018-Jul-13 00:30N 51°19' E 004°16'4 8.0
2018-Jul-13 00:00N 51°22' E 004°13'4 7.2
2018-Jul-12 23:30N 51°22' E 004°07'4 8.7
2018-Jul-12 23:01N 51°25' E 004°02'4 7.7
2018-Jul-12 22:30N 51°23' E 003°57'611.7
2018-Jul-12 22:00N 51°21' E 003°48'713.5
2018-Jul-12 21:31N 51°26' E 003°41'510.6
2018-Jul-12 21:01N 51°25' E 003°32'611.6
2018-Jul-12 20:31N 51°24' E 003°23'713.8
2018-Jul-12 20:00N 51°24' E 003°12'713.9
2018-Jul-12 19:30N 51°25' E 003°01'816.5
2018-Jul-12 19:00N 51°25' E 002°48'612.5
2018-Jul-12 18:30N 51°23' E 002°39'510.3
2018-Jul-12 18:00N 51°22' E 002°30'612.6
2018-Jul-12 17:30N 51°19' E 002°21'612.7
2018-Jul-12 17:00N 51°16' E 002°13'612.5
2018-Jul-12 16:30N 51°13' E 002°04'612.7
2018-Jul-12 16:00N 51°10' E 001°55'612.7
2018-Jul-12 15:30N 51°07' E 001°46'613.0
2018-Jul-12 15:00N 51°02' E 001°39'713.1
2018-Jul-12 14:30N 50°57' E 001°32'713.3
2018-Jul-12 14:00N 50°51' E 001°27'713.3
2018-Jul-12 13:30N 50°45' E 001°24'612.8
2018-Jul-12 13:00N 50°40' E 001°17'713.1
2018-Jul-12 12:30N 50°35' E 001°10'713.5
2018-Jul-12 12:00N 50°30' E 001°03'712.8
2018-Jul-12 11:29N 50°28' E 000°53'813.0
2018-Jul-12 10:54N 50°26' E 000°41'512.9
2018-Jul-12 10:30N 50°25' E 000°34'610.9
2018-Jul-12 09:59N 50°23' E 000°25'5 9.8
2018-Jul-12 09:27N 50°22' E 000°17'510.2
2018-Jul-12 08:59N 50°20' E 000°10'610.7
2018-Jul-12 08:25N 50°19' E 000°01'613.1
2018-Jul-12 08:00N 50°18' W 000°08'816.4
2018-Jul-12 07:30N 50°16' W 000°20'816.7
2018-Jul-12 07:00N 50°14' W 000°32'816.7
2018-Jul-12 06:30N 50°12' W 000°45'917.3
2018-Jul-12 06:00N 50°10' W 000°58'917.4
2018-Jul-12 05:30N 50°07' W 001°11'1517.2
2018-Jul-12 04:37N 50°04' W 001°34'817.1
2018-Jul-12 04:09N 50°02' W 001°46'1416.9
2018-Jul-12 03:18N 49°58' W 002°08'516.7
2018-Jul-12 03:00N 49°56' W 002°15'816.9
2018-Jul-12 02:31N 49°54' W 002°28'816.7
2018-Jul-12 02:01N 49°52' W 002°40'816.4
2018-Jul-12 01:30N 49°48' W 002°52'816.4
2018-Jul-12 01:00N 49°45' W 003°03'816.4
2018-Jul-12 00:31N 49°40' W 003°14'816.5
2018-Jul-12 00:00N 49°36' W 003°25'816.4
2018-Jul-11 23:30N 49°32' W 003°36'816.5
2018-Jul-11 23:01N 49°29' W 003°47'816.3
2018-Jul-11 22:30N 49°24' W 003°58'4716.1
2018-Jul-11 19:35N 49°00' W 004°60'216.1
2018-Jul-11 19:27N 48°59' W 005°03'716.1
2018-Jul-11 19:00N 48°56' W 005°12'816.2
2018-Jul-11 18:30N 48°52' W 005°23'816.2
2018-Jul-11 18:00N 48°48' W 005°34'816.2
2018-Jul-11 17:30N 48°42' W 005°41'816.2
2018-Jul-11 16:59N 48°34' W 005°48'37517.0
2018-Jul-10 18:53N 42°59' W 009°48'717.5
2018-Jul-10 18:29N 42°52' W 009°48'13817.2
2018-Jul-10 10:27N 40°34' W 009°50'817.4
2018-Jul-10 10:00N 40°26' W 009°50'917.0
2018-Jul-10 09:30N 40°17' W 009°50'817.5
2018-Jul-10 09:00N 40°09' W 009°51'917.2
2018-Jul-10 08:28N 39°59' W 009°51'1417.2
2018-Jul-10 07:38N 39°45' W 009°51'1117.3
2018-Jul-10 07:00N 39°34' W 009°51'1016.9
2018-Jul-10 06:26N 39°24' W 009°51'1017.1
2018-Jul-10 05:52N 39°15' W 009°52'617.4
2018-Jul-10 05:30N 39°09' W 009°52'917.3
2018-Jul-10 05:00N 38°60' W 009°52'917.4
2018-Jul-10 04:30N 38°51' W 009°52'816.8
2018-Jul-10 04:00N 38°43' W 009°52'917.1
2018-Jul-10 03:30N 38°35' W 009°49'917.4
2018-Jul-10 03:00N 38°26' W 009°47'917.2
2018-Jul-10 02:30N 38°18' W 009°44'917.2
2018-Jul-10 02:00N 38°09' W 009°42'917.3
2018-Jul-10 01:30N 38°01' W 009°40'917.2
2018-Jul-10 01:00N 37°52' W 009°38'917.1
2018-Jul-10 00:30N 37°44' W 009°35'817.0
2018-Jul-10 00:00N 37°36' W 009°33'917.3
2018-Jul-09 23:30N 37°27' W 009°31'917.3
2018-Jul-09 23:00N 37°19' W 009°29'  
Track history (hours):
 
Tides and Currents Weather Stations Pressure Air Temp Water Temp Dewpoint Dewpoint Depression Visibility Wind Speed Wind Dir Waves Ship Positions

MSC Fillippa

Last reported at 2018-Jul-19 23:00 UTC. Time now 2018-Jul-19 23:09 UTC.
Position N 55°43' E 016°22'.

Length 366 m; draft 9.6 m.

Type: Cargo ship. MMSI: 636092168.

Date/timePositionNaut miles runAvg speedWind from/ knotsBaromVisibWave heightAir tempDewpointWater temp
2018-Jul-19 23:00N 55°43' E 016°22'918.9
2018-Jul-19 22:30N 55°41' E 016°06'1019.1
2018-Jul-19 22:00N 55°39' E 015°49'1019.2
2018-Jul-19 21:30N 55°37' E 015°33'1018.9
2018-Jul-19 21:00N 55°34' E 015°17'1019.2
2018-Jul-19 20:30N 55°30' E 015°02'1019.7
2018-Jul-19 20:00N 55°26' E 014°46'1019.1
2018-Jul-19 19:30N 55°19' E 014°34'1019.0
2018-Jul-19 19:00N 55°12' E 014°24'1019.2
2018-Jul-19 18:30N 55°04' E 014°13'919.1
2018-Jul-19 18:00N 54°59' E 013°59'1019.5
2018-Jul-19 17:30N 54°56' E 013°43'1019.3
2018-Jul-19 17:00N 54°52' E 013°28'1019.1
2018-Jul-19 16:30N 54°50' E 013°11'2718.4
2018-Jul-19 15:01N 54°40' E 012°27'118.3
2018-Jul-19 14:58N 54°39' E 012°26'1414.8
2018-Jul-19 14:00N 54°28' E 012°13'918.1
2018-Jul-19 13:30N 54°25' E 011°58'1019.6
2018-Jul-19 13:00N 54°26' E 011°41'1020.3
2018-Jul-19 12:30N 54°31' E 011°26'1019.8
2018-Jul-19 12:00N 54°35' E 011°10'1019.6
2018-Jul-19 11:30N 54°38' E 010°54'917.1
2018-Jul-19 11:00N 54°45' E 010°48'918.9
2018-Jul-19 10:30N 54°55' E 010°52'918.0
2018-Jul-19 10:00N 55°02' E 010°60'917.9
2018-Jul-19 09:30N 55°11' E 011°03'816.7
2018-Jul-19 09:00N 55°20' E 011°02'1019.5
2018-Jul-19 08:28N 55°29' E 010°54'2418.5
2018-Jul-19 07:11N 55°52' E 010°49'817.7
2018-Jul-19 06:43N 55°58' E 011°00'418.6
2018-Jul-19 06:30N 56°01' E 011°04'918.5
2018-Jul-19 06:00N 56°09' E 011°13'1019.1
2018-Jul-19 05:30N 56°17' E 011°22'1119.5
2018-Jul-19 04:57N 56°26' E 011°32'919.3
2018-Jul-19 04:30N 56°34' E 011°40'1219.5
2018-Jul-19 03:54N 56°44' E 011°50'819.2
2018-Jul-19 03:28N 56°52' E 011°48'919.2
2018-Jul-19 03:00N 57°01' E 011°42'919.3
2018-Jul-19 02:30N 57°10' E 011°36'1019.5
2018-Jul-19 02:00N 57°19' E 011°31'1019.7
2018-Jul-19 01:30N 57°28' E 011°24'1019.9
2018-Jul-19 01:00N 57°34' E 011°10'1019.4
2018-Jul-19 00:30N 57°41' E 010°57'919.0
2018-Jul-19 00:00N 57°47' E 010°43'5 9.5
2018-Jul-18 23:30N 57°47' E 010°34'713.5
2018-Jul-18 23:00N 57°48' E 010°22'815.0
2018-Jul-18 22:30N 57°48' E 010°07'1020.3
2018-Jul-18 22:00N 57°47' E 009°49'1020.6
2018-Jul-18 21:30N 57°46' E 009°29'1020.6
2018-Jul-18 21:00N 57°41' E 009°13'1220.4
2018-Jul-18 20:26N 57°35' E 008°54'920.5
2018-Jul-18 20:00N 57°30' E 008°40'1520.5
2018-Jul-18 19:17N 57°22' E 008°17'620.2
2018-Jul-18 18:58N 57°18' E 008°09'1519.3
2018-Jul-18 18:11N 57°05' E 007°54'17517.8
2018-Jul-18 08:23N 54°11' E 007°38'820.3
2018-Jul-18 08:00N 54°07' E 007°49'1020.5
2018-Jul-18 07:30N 54°01' E 008°04'714.5
2018-Jul-18 07:00N 54°00' E 008°16'1020.9
2018-Jul-18 06:30N 53°58' E 008°33'918.2
2018-Jul-18 06:00N 53°52' E 008°44'713.4
2018-Jul-18 05:31N 53°51' E 008°56'713.3
2018-Jul-18 05:01N 53°53' E 009°06'510.4
2018-Jul-18 04:30N 53°53' E 009°15'611.8
2018-Jul-18 04:00N 53°48' E 009°22'510.3
2018-Jul-18 03:30N 53°44' E 009°27'5 9.8
2018-Jul-18 03:00N 53°40' E 009°31'5 9.7
2018-Jul-18 02:30N 53°36' E 009°36'510.1
2018-Jul-18 02:01N 53°34' E 009°43'510.6
2018-Jul-18 01:30N 53°33' E 009°52'1 2.4
2018-Jul-18 00:58N 53°32' E 009°54'0 0.0
2018-Jul-18 00:28N 53°32' E 009°54'0 0.0
2018-Jul-17 23:58N 53°32' E 009°54'0 0.0
2018-Jul-17 23:28N 53°32' E 009°54'0 0.0
2018-Jul-17 22:58N 53°32' E 009°54'0 0.0
2018-Jul-17 22:28N 53°32' E 009°54'0 0.0
2018-Jul-17 21:58N 53°32' E 009°54'0 0.0
2018-Jul-17 21:28N 53°32' E 009°54'0 0.0
2018-Jul-17 20:58N 53°32' E 009°54'0 0.0
2018-Jul-17 20:28N 53°32' E 009°54'0 0.0
2018-Jul-17 19:58N 53°32' E 009°54'0 0.0
2018-Jul-17 19:28N 53°32' E 009°54'0 0.0
2018-Jul-17 18:58N 53°32' E 009°54'0 0.0
2018-Jul-17 18:28N 53°32' E 009°54'0 0.0
2018-Jul-17 17:58N 53°32' E 009°54'0 0.0
2018-Jul-17 17:28N 53°32' E 009°54'0 0.0
2018-Jul-17 16:58N 53°32' E 009°54'0 0.0
2018-Jul-17 16:28N 53°32' E 009°54'0 0.0
2018-Jul-17 15:58N 53°32' E 009°54'0 0.0
2018-Jul-17 15:25N 53°32' E 009°54'0 0.0
2018-Jul-17 14:58N 53°32' E 009°54'0 0.0
2018-Jul-17 14:28N 53°32' E 009°54'0 0.0
2018-Jul-17 13:58N 53°32' E 009°54'0 0.0
2018-Jul-17 13:28N 53°32' E 009°54'0 0.0
2018-Jul-17 12:58N 53°32' E 009°54'0 0.0
2018-Jul-17 12:28N 53°32' E 009°54'0 0.0
2018-Jul-17 11:58N 53°32' E 009°54'0 0.0
2018-Jul-17 11:28N 53°32' E 009°54'0 0.0
2018-Jul-17 10:58N 53°32' E 009°54'0 0.0
2018-Jul-17 10:28N 53°32' E 009°54'0 0.0
2018-Jul-17 09:58N 53°32' E 009°54'0 0.0
2018-Jul-17 09:28N 53°32' E 009°54'0 0.0
2018-Jul-17 08:58N 53°32' E 009°54'0 0.0
2018-Jul-17 08:28N 53°32' E 009°54'0 0.0
2018-Jul-17 08:00N 53°32' E 009°54'0 0.0
2018-Jul-17 07:30N 53°32' E 009°54'0 0.2
2018-Jul-17 07:00N 53°32' E 009°54'2 3.5
2018-Jul-17 06:30N 53°33' E 009°51'4 8.5
2018-Jul-17 06:00N 53°34' E 009°45'611.3
2018-Jul-17 05:31N 53°36' E 009°36'611.1
2018-Jul-17 05:00N 53°40' E 009°30'713.1
2018-Jul-17 04:30N 53°46' E 009°24'714.4
2018-Jul-17 04:01N 53°52' E 009°18'612.8
2018-Jul-17 03:30N 53°53' E 009°07'612.9
2018-Jul-17 03:01N 53°51' E 008°56'713.2
2018-Jul-17 02:30N 53°51' E 008°45'713.6
2018-Jul-17 02:00N 53°57' E 008°39'917.3
2018-Jul-17 01:30N 53°59' E 008°24'816.4
2018-Jul-17 01:00N 53°59' E 008°10'611.7
2018-Jul-17 00:29N 53°58' E 008°00'5 4.8
2018-Jul-16 23:30N 53°57' E 007°52'3 6.4
2018-Jul-16 23:00N 53°57' E 007°47'815.7
2018-Jul-16 22:30N 53°55' E 007°34'1120.9
2018-Jul-16 22:00N 53°53' E 007°16'1121.0
2018-Jul-16 21:30N 53°51' E 006°59'1121.0
2018-Jul-16 20:59N 53°48' E 006°41'1220.2
2018-Jul-16 20:23N 53°45' E 006°21'719.5
2018-Jul-16 20:00N 53°43' E 006°09'1019.3
2018-Jul-16 19:30N 53°39' E 005°55'1119.1
2018-Jul-16 18:57N 53°36' E 005°38'819.0
2018-Jul-16 18:30N 53°33' E 005°24'1019.3
2018-Jul-16 18:01N 53°30' E 005°09'1019.0
2018-Jul-16 17:30N 53°28' E 004°53'918.0
2018-Jul-16 17:01N 53°23' E 004°41'1019.1
2018-Jul-16 16:30N 53°14' E 004°34'1019.2
2018-Jul-16 16:00N 53°06' E 004°26'1019.2
2018-Jul-16 15:31N 52°57' E 004°18'1019.3
2018-Jul-16 15:01N 52°49' E 004°11'1019.2
2018-Jul-16 14:31N 52°41' E 004°02'1019.2
2018-Jul-16 14:00N 52°32' E 003°55'1019.3
2018-Jul-16 13:30N 52°23' E 003°52'919.1
2018-Jul-16 13:00N 52°13' E 003°53'917.5
2018-Jul-16 12:30N 52°04' E 003°56'5 9.3
2018-Jul-16 12:00N 52°00' E 003°59'5 9.1
2018-Jul-16 11:30N 51°57' E 004°05'1 1.6
2018-Jul-16 10:59N 51°58' E 004°04'0 0.0
2018-Jul-16 10:29N 51°58' E 004°04'0 0.0
2018-Jul-16 09:59N 51°58' E 004°04'0 0.0
2018-Jul-16 09:29N 51°58' E 004°04'0 0.0
2018-Jul-16 08:59N 51°58' E 004°04'0 0.0
2018-Jul-16 08:29N 51°58' E 004°04'0 0.0
2018-Jul-16 07:59N 51°58' E 004°04'0 0.0
2018-Jul-16 07:29N 51°58' E 004°04'0 0.0
2018-Jul-16 06:59N 51°58' E 004°04'0 0.0
2018-Jul-16 06:29N 51°58' E 004°04'0 0.0
2018-Jul-16 05:59N 51°58' E 004°04'0 0.0
2018-Jul-16 05:29N 51°58' E 004°04'0 0.0
2018-Jul-16 04:59N 51°58' E 004°04'0 0.0
2018-Jul-16 04:30N 51°58' E 004°04'0 0.0
2018-Jul-16 03:59N 51°58' E 004°04'0 0.0
2018-Jul-16 03:29N 51°58' E 004°04'0 0.0
2018-Jul-16 02:59N 51°58' E 004°04'0 0.0
2018-Jul-16 02:29N 51°58' E 004°04'0 0.0
2018-Jul-16 01:59N 51°58' E 004°04'0 0.0
2018-Jul-16 01:29N 51°58' E 004°04'0 0.0
2018-Jul-16 00:59N 51°58' E 004°04'0 0.0
2018-Jul-16 00:29N 51°58' E 004°04'0 0.0
2018-Jul-15 23:59N 51°58' E 004°04'0 0.0
2018-Jul-15 23:29N 51°58' E 004°04'0 0.0
2018-Jul-15 22:59N 51°58' E 004°04'0 0.0
2018-Jul-15 22:29N 51°58' E 004°04'0 0.0
2018-Jul-15 21:59N 51°58' E 004°04'0 0.0
2018-Jul-15 21:29N 51°58' E 004°04'0 0.0
2018-Jul-15 20:59N 51°58' E 004°04'0 0.0
2018-Jul-15 20:29N 51°58' E 004°04'0 0.0
2018-Jul-15 19:59N 51°58' E 004°04'0 0.0
2018-Jul-15 19:29N 51°58' E 004°04'0 0.0
2018-Jul-15 18:59N 51°58' E 004°04'0 0.0
2018-Jul-15 18:29N 51°58' E 004°04'0 0.0
2018-Jul-15 17:59N 51°58' E 004°04'0 0.0
2018-Jul-15 17:30N 51°58' E 004°04'0 0.0
2018-Jul-15 17:00N 51°58' E 004°04'0 0.3
2018-Jul-15 16:30N 51°58' E 004°04'1 2.9
2018-Jul-15 16:00N 51°59' E 004°03'611.9
2018-Jul-15 15:30N 52°00' E 003°54'5 9.2
2018-Jul-15 15:00N 51°60' E 003°47'4 8.5
2018-Jul-15 14:30N 51°58' E 003°40'4 7.5
2018-Jul-15 14:00N 51°57' E 003°34'5 9.3
2018-Jul-15 13:30N 51°56' E 003°27'510.0
2018-Jul-15 13:00N 51°52' E 003°23'1 2.3
2018-Jul-15 12:30N 51°51' E 003°21'1 1.4
2018-Jul-15 12:00N 51°51' E 003°20'1 1.3
2018-Jul-15 11:30N 51°51' E 003°19'0 0.5
2018-Jul-15 11:00N 51°52' E 003°19'1 1.6
2018-Jul-15 10:30N 51°52' E 003°20'0 0.2
2018-Jul-15 10:00N 51°52' E 003°20'1 1.7
2018-Jul-15 09:30N 51°52' E 003°22'0 0.7
2018-Jul-15 09:00N 51°52' E 003°21'1 2.0
2018-Jul-15 08:30N 51°51' E 003°20'1 2.0
2018-Jul-15 08:00N 51°52' E 003°21'1 1.3
2018-Jul-15 07:30N 51°52' E 003°22'1 1.5
2018-Jul-15 07:00N 51°53' E 003°23'0 0.9
2018-Jul-15 06:30N 51°53' E 003°23'0 0.8
2018-Jul-15 06:00N 51°52' E 003°23'0 0.8
2018-Jul-15 05:30N 51°52' E 003°24'1 1.7
2018-Jul-15 05:00N 51°53' E 003°23'0 0.8
2018-Jul-15 04:30N 51°52' E 003°23'1 1.9
2018-Jul-15 04:00N 51°52' E 003°24'0 0.8
2018-Jul-15 03:30N 51°52' E 003°24'1 1.1
2018-Jul-15 03:00N 51°53' E 003°23'1 2.2
2018-Jul-15 02:30N 51°52' E 003°25'0 0.8
2018-Jul-15 02:00N 51°52' E 003°24'0 0.7
2018-Jul-15 01:30N 51°52' E 003°24'0 0.8
2018-Jul-15 01:00N 51°52' E 003°23'0 0.3
2018-Jul-15 00:30N 51°52' E 003°24'1 1.1
2018-Jul-15 00:00N 51°52' E 003°23'3 5.8
2018-Jul-14 23:30N 51°50' E 003°20'4 7.6
2018-Jul-14 23:00N 51°46' E 003°17'4 7.9
2018-Jul-14 22:30N 51°43' E 003°14'611.2
2018-Jul-14 22:00N 51°38' E 003°11'816.0
2018-Jul-14 21:30N 51°31' E 003°05'612.5
2018-Jul-14 21:00N 51°25' E 003°02'1019.4
2018-Jul-14 20:30N 51°24' E 003°17'1019.0
2018-Jul-14 20:00N 51°25' E 003°33'611.2
2018-Jul-14 19:31N 51°26' E 003°42'612.8
2018-Jul-14 19:00N 51°21' E 003°48'714.8
2018-Jul-14 18:30N 51°25' E 003°58'510.4
2018-Jul-14 18:00N 51°22' E 004°05'510.8
2018-Jul-14 17:30N 51°22' E 004°13'4 8.9
2018-Jul-14 17:01N 51°18' E 004°16'1 1.1
2018-Jul-14 16:28N 51°17' E 004°15'0 0.0
2018-Jul-14 15:58N 51°17' E 004°15'0 0.0
2018-Jul-14 15:28N 51°17' E 004°15'0 0.0
2018-Jul-14 14:58N 51°17' E 004°15'0 0.0
2018-Jul-14 13:58N 51°17' E 004°15'0 0.0
2018-Jul-14 13:28N 51°17' E 004°15'0 0.0
2018-Jul-14 12:58N 51°17' E 004°15'0 0.0
2018-Jul-14 12:28N 51°17' E 004°15'0 0.0
2018-Jul-14 11:58N 51°17' E 004°15'0 0.0
2018-Jul-14 11:28N 51°17' E 004°15'0 0.0
2018-Jul-14 10:58N 51°17' E 004°15'0 0.0
2018-Jul-14 10:28N 51°17' E 004°15'0 0.0
2018-Jul-14 09:58N 51°17' E 004°15'0 0.0
2018-Jul-14 09:28N 51°17' E 004°15'0 0.0
2018-Jul-14 08:58N 51°17' E 004°15'0 0.0
2018-Jul-14 08:28N 51°17' E 004°15'0 0.0
2018-Jul-14 07:58N 51°17' E 004°15'0 0.0
2018-Jul-14 07:28N 51°17' E 004°15'0 0.0
2018-Jul-14 06:58N 51°17' E 004°15'0 0.0
2018-Jul-14 06:28N 51°17' E 004°15'0 0.0
2018-Jul-14 05:58N 51°17' E 004°15'0 0.0
2018-Jul-14 05:28N 51°17' E 004°15'0 0.0
2018-Jul-14 04:55N 51°17' E 004°15'0 0.0
2018-Jul-14 04:28N 51°17' E 004°15'0 0.0
2018-Jul-14 03:58N 51°17' E 004°15'0 0.0
2018-Jul-14 03:28N 51°17' E 004°15'0 0.0
2018-Jul-14 02:58N 51°17' E 004°15'0 0.0
2018-Jul-14 02:28N 51°17' E 004°15'0 0.0
2018-Jul-14 01:58N 51°17' E 004°15'0 0.0
2018-Jul-14 01:28N 51°17' E 004°15'0 0.0
2018-Jul-14 00:58N 51°17' E 004°15'0 0.0
2018-Jul-14 00:28N 51°17' E 004°15'0 0.0
2018-Jul-13 23:58N 51°17' E 004°15'0 0.0
2018-Jul-13 23:28N 51°17' E 004°15'0 0.0
2018-Jul-13 22:58N 51°17' E 004°15'0 0.0
2018-Jul-13 22:28N 51°17' E 004°15'0 0.0
2018-Jul-13 21:58N 51°17' E 004°15'0 0.0
2018-Jul-13 21:28N 51°17' E 004°15'0 0.0
2018-Jul-13 20:55N 51°17' E 004°15'0 0.0
2018-Jul-13 20:28N 51°17' E 004°15'0 0.0
2018-Jul-13 19:58N 51°17' E 004°15'0 0.0
2018-Jul-13 19:28N 51°17' E 004°15'0 0.0
2018-Jul-13 18:58N 51°17' E 004°15'0 0.0
2018-Jul-13 18:28N 51°17' E 004°15'0 0.0
2018-Jul-13 17:58N 51°17' E 004°15'0 0.0
2018-Jul-13 17:28N 51°17' E 004°15'0 0.0
2018-Jul-13 16:58N 51°17' E 004°15'0 0.0
2018-Jul-13 16:28N 51°17' E 004°15'0 0.0
2018-Jul-13 15:55N 51°17' E 004°15'0 0.0
2018-Jul-13 15:28N 51°17' E 004°15'0 0.0
2018-Jul-13 14:58N 51°17' E 004°15'0 0.0
2018-Jul-13 13:58N 51°17' E 004°15'0 0.0
2018-Jul-13 13:28N 51°17' E 004°15'0 0.0
2018-Jul-13 12:58N 51°17' E 004°15'0 0.0
2018-Jul-13 12:28N 51°17' E 004°15'0 0.0
2018-Jul-13 11:58N 51°17' E 004°15'0 0.0
2018-Jul-13 11:28N 51°17' E 004°15'0 0.0
2018-Jul-13 10:58N 51°17' E 004°15'0 0.0
2018-Jul-13 10:28N 51°17' E 004°15'0 0.0
2018-Jul-13 09:58N 51°17' E 004°15'0 0.0
2018-Jul-13 09:25N 51°17' E 004°15'0 0.0
2018-Jul-13 08:58N 51°17' E 004°15'0 0.0
2018-Jul-13 08:28N 51°17' E 004°15'0 0.0
2018-Jul-13 07:58N 51°17' E 004°15'0 0.0
2018-Jul-13 07:28N 51°17' E 004°15'0 0.0
2018-Jul-13 06:58N 51°17' E 004°15'0 0.0
2018-Jul-13 06:28N 51°17' E 004°15'0 0.0
2018-Jul-13 05:58N 51°17' E 004°15'0 0.0
2018-Jul-13 05:28N 51°17' E 004°15'0 0.0
2018-Jul-13 04:58N 51°17' E 004°15'0 0.0
2018-Jul-13 04:28N 51°17' E 004°15'0 0.0
2018-Jul-13 03:58N 51°17' E 004°15'0 0.0
2018-Jul-13 03:28N 51°17' E 004°15'0 0.0
2018-Jul-13 02:58N 51°17' E 004°15'0 0.0
2018-Jul-13 02:28N 51°17' E 004°15'0 0.0
2018-Jul-13 02:00N 51°17' E 004°15'0 0.0
2018-Jul-13 01:31N 51°17' E 004°15'1 1.2
2018-Jul-13 01:01N 51°18' E 004°16'1 2.2
2018-Jul-13 00:30N 51°19' E 004°16'4 8.0
2018-Jul-13 00:00N 51°22' E 004°13'4 7.2
2018-Jul-12 23:30N 51°22' E 004°07'4 8.7
2018-Jul-12 23:01N 51°25' E 004°02'4 7.7
2018-Jul-12 22:30N 51°23' E 003°57'611.7
2018-Jul-12 22:00N 51°21' E 003°48'713.5
2018-Jul-12 21:31N 51°26' E 003°41'510.6
2018-Jul-12 21:01N 51°25' E 003°32'611.6
2018-Jul-12 20:31N 51°24' E 003°23'713.8
2018-Jul-12 20:00N 51°24' E 003°12'713.9
2018-Jul-12 19:30N 51°25' E 003°01'816.5
2018-Jul-12 19:00N 51°25' E 002°48'612.5
2018-Jul-12 18:30N 51°23' E 002°39'510.3
2018-Jul-12 18:00N 51°22' E 002°30'612.6
2018-Jul-12 17:30N 51°19' E 002°21'612.7
2018-Jul-12 17:00N 51°16' E 002°13'612.5
2018-Jul-12 16:30N 51°13' E 002°04'612.7
2018-Jul-12 16:00N 51°10' E 001°55'612.7
2018-Jul-12 15:30N 51°07' E 001°46'613.0
2018-Jul-12 15:00N 51°02' E 001°39'713.1
2018-Jul-12 14:30N 50°57' E 001°32'713.3
2018-Jul-12 14:00N 50°51' E 001°27'713.3
2018-Jul-12 13:30N 50°45' E 001°24'612.8
2018-Jul-12 13:00N 50°40' E 001°17'713.1
2018-Jul-12 12:30N 50°35' E 001°10'713.5
2018-Jul-12 12:00N 50°30' E 001°03'712.8
2018-Jul-12 11:29N 50°28' E 000°53'813.0
2018-Jul-12 10:54N 50°26' E 000°41'512.9
2018-Jul-12 10:30N 50°25' E 000°34'610.9
2018-Jul-12 09:59N 50°23' E 000°25'5 9.8
2018-Jul-12 09:27N 50°22' E 000°17'510.2
2018-Jul-12 08:59N 50°20' E 000°10'610.7
2018-Jul-12 08:25N 50°19' E 000°01'613.1
2018-Jul-12 08:00N 50°18' W 000°08'816.4
2018-Jul-12 07:30N 50°16' W 000°20'816.7
2018-Jul-12 07:00N 50°14' W 000°32'816.7
2018-Jul-12 06:30N 50°12' W 000°45'917.3
2018-Jul-12 06:00N 50°10' W 000°58'917.4
2018-Jul-12 05:30N 50°07' W 001°11'1517.2
2018-Jul-12 04:37N 50°04' W 001°34'817.1
2018-Jul-12 04:09N 50°02' W 001°46'1416.9
2018-Jul-12 03:18N 49°58' W 002°08'516.7
2018-Jul-12 03:00N 49°56' W 002°15'816.9
2018-Jul-12 02:31N 49°54' W 002°28'816.7
2018-Jul-12 02:01N 49°52' W 002°40'816.4
2018-Jul-12 01:30N 49°48' W 002°52'816.4
2018-Jul-12 01:00N 49°45' W 003°03'816.4
2018-Jul-12 00:31N 49°40' W 003°14'816.5
2018-Jul-12 00:00N 49°36' W 003°25'816.4
2018-Jul-11 23:30N 49°32' W 003°36'816.5
2018-Jul-11 23:01N 49°29' W 003°47'816.3
2018-Jul-11 22:30N 49°24' W 003°58'4716.1
2018-Jul-11 19:35N 49°00' W 004°60'216.1
2018-Jul-11 19:27N 48°59' W 005°03'716.1
2018-Jul-11 19:00N 48°56' W 005°12'816.2
2018-Jul-11 18:30N 48°52' W 005°23'816.2
2018-Jul-11 18:00N 48°48' W 005°34'816.2
2018-Jul-11 17:30N 48°42' W 005°41'816.2
2018-Jul-11 16:59N 48°34' W 005°48'37517.0
2018-Jul-10 18:53N 42°59' W 009°48'717.5
2018-Jul-10 18:29N 42°52' W 009°48'13817.2
2018-Jul-10 10:27N 40°34' W 009°50'817.4
2018-Jul-10 10:00N 40°26' W 009°50'917.0
2018-Jul-10 09:30N 40°17' W 009°50'817.5
2018-Jul-10 09:00N 40°09' W 009°51'917.2
2018-Jul-10 08:28N 39°59' W 009°51'1417.2
2018-Jul-10 07:38N 39°45' W 009°51'1117.3
2018-Jul-10 07:00N 39°34' W 009°51'1016.9
2018-Jul-10 06:26N 39°24' W 009°51'1017.1
2018-Jul-10 05:52N 39°15' W 009°52'617.4
2018-Jul-10 05:30N 39°09' W 009°52'917.3
2018-Jul-10 05:00N 38°60' W 009°52'917.4
2018-Jul-10 04:30N 38°51' W 009°52'816.8
2018-Jul-10 04:00N 38°43' W 009°52'917.1
2018-Jul-10 03:30N 38°35' W 009°49'917.4
2018-Jul-10 03:00N 38°26' W 009°47'917.2
2018-Jul-10 02:30N 38°18' W 009°44'917.2
2018-Jul-10 02:00N 38°09' W 009°42'917.3
2018-Jul-10 01:30N 38°01' W 009°40'917.2
2018-Jul-10 01:00N 37°52' W 009°38'917.1
2018-Jul-10 00:30N 37°44' W 009°35'817.0
2018-Jul-10 00:00N 37°36' W 009°33'917.3
2018-Jul-09 23:30N 37°27' W 009°31'917.3
2018-Jul-09 23:00N 37°19' W 009°29'  

Dump ship's entire track history